createdAt,value
2023-12-13T00:01:35.999Z,0.90
2023-12-13T00:04:03.933Z,0.88
2023-12-13T00:06:33.286Z,1.10
2023-12-13T00:09:02.356Z,1.10
2023-12-13T00:11:30.147Z,1.00
2023-12-13T00:13:57.961Z,1.20
2023-12-13T00:16:25.786Z,1.88
2023-12-13T00:18:53.824Z,1.65
2023-12-13T00:21:21.696Z,1.92
2023-12-13T00:23:50.882Z,3.15
2023-12-13T00:26:19.756Z,1.88
2023-12-13T00:28:48.063Z,0.95
2023-12-13T00:31:15.878Z,1.42
2023-12-13T00:33:43.957Z,1.08
2023-12-13T00:36:12.162Z,1.05
2023-12-13T00:38:40.036Z,1.30
2023-12-13T00:41:09.269Z,1.10
2023-12-13T00:43:37.221Z,0.93
2023-12-13T00:46:06.727Z,1.15
2023-12-13T00:48:37.431Z,1.45
2023-12-13T00:51:05.768Z,1.33
2023-12-13T00:53:33.588Z,0.80
2023-12-13T00:56:01.345Z,0.70
2023-12-13T00:58:30.592Z,0.73
2023-12-13T01:00:58.670Z,1.23
2023-12-13T01:03:26.610Z,0.95
2023-12-13T01:05:54.433Z,1.08
2023-12-13T01:08:22.288Z,0.45
2023-12-13T01:10:50.193Z,0.90
2023-12-13T01:13:18.075Z,1.17
2023-12-13T01:15:47.183Z,0.65
2023-12-13T01:18:15.124Z,1.05
2023-12-13T01:20:43.006Z,0.88
2023-12-13T01:23:10.905Z,0.65
2023-12-13T01:25:38.724Z,0.90
2023-12-13T01:28:06.544Z,0.95
2023-12-13T01:30:34.457Z,0.70
2023-12-13T01:33:03.657Z,1.08
2023-12-13T01:35:31.587Z,1.77
2023-12-13T01:37:59.397Z,0.82
2023-12-13T01:40:28.384Z,0.68
2023-12-13T01:42:56.178Z,1.52
2023-12-13T01:45:24.000Z,0.52
2023-12-13T01:47:51.845Z,1.67
2023-12-13T01:50:21.133Z,0.80
2023-12-13T01:52:49.012Z,0.75
2023-12-13T01:55:17.375Z,1.05
2023-12-13T01:57:45.242Z,0.75
2023-12-13T02:00:14.269Z,1.17
2023-12-13T02:02:42.733Z,1.08
2023-12-13T02:05:12.061Z,0.90
2023-12-13T02:07:41.777Z,0.40
2023-12-13T02:10:10.089Z,0.73
2023-12-13T02:12:39.394Z,0.40
2023-12-13T02:15:08.509Z,1.23
2023-12-13T02:17:36.868Z,1.83
2023-12-13T02:20:05.824Z,1.10
2023-12-13T02:22:34.914Z,0.63
2023-12-13T02:25:05.956Z,1.17
2023-12-13T02:27:33.977Z,1.15
2023-12-13T02:30:01.983Z,0.65
2023-12-13T02:32:29.758Z,1.00
2023-12-13T02:34:57.843Z,1.02
2023-12-13T02:37:25.827Z,1.20
2023-12-13T02:39:54.995Z,1.05
2023-12-13T02:42:22.713Z,1.25
2023-12-13T02:44:50.475Z,1.05
2023-12-13T02:47:18.204Z,0.90
2023-12-13T02:49:45.960Z,0.70
2023-12-13T02:52:13.963Z,0.52
2023-12-13T02:54:41.849Z,0.75
2023-12-13T02:57:10.984Z,0.60
2023-12-13T02:59:38.785Z,1.00
2023-12-13T03:02:06.594Z,1.35
2023-12-13T03:04:34.605Z,0.50
2023-12-13T03:07:02.407Z,0.40
2023-12-13T03:09:30.335Z,0.65
2023-12-13T03:11:58.185Z,0.70
2023-12-13T03:14:27.331Z,1.08
2023-12-13T03:16:55.189Z,1.13
2023-12-13T03:19:23.194Z,0.70
2023-12-13T03:21:51.024Z,0.80
2023-12-13T03:24:18.732Z,0.60
2023-12-13T03:26:46.583Z,1.50
2023-12-13T03:29:14.295Z,0.32
2023-12-13T03:31:43.471Z,1.05
2023-12-13T03:34:11.289Z,1.50
2023-12-13T03:36:39.128Z,1.60
2023-12-13T03:39:08.549Z,1.17
2023-12-13T03:41:36.665Z,1.10
2023-12-13T03:44:04.588Z,0.77
2023-12-13T03:46:32.476Z,0.90
2023-12-13T03:49:01.952Z,0.88
2023-12-13T03:51:29.832Z,0.60
2023-12-13T03:53:57.647Z,0.98
2023-12-13T03:56:25.451Z,1.38
2023-12-13T03:58:53.209Z,0.90
2023-12-13T04:01:21.149Z,1.20
2023-12-13T04:03:49.016Z,1.00
2023-12-13T04:06:18.484Z,0.85
2023-12-13T04:08:46.333Z,0.88
2023-12-13T04:11:14.366Z,1.23
2023-12-13T04:13:42.156Z,0.88
2023-12-13T04:16:10.615Z,0.80
2023-12-13T04:18:38.838Z,0.90
2023-12-13T04:21:07.705Z,1.23
2023-12-13T04:23:37.306Z,1.50
2023-12-13T04:26:05.411Z,1.13
2023-12-13T04:28:33.184Z,1.00
2023-12-13T04:31:01.080Z,1.10
2023-12-13T04:33:28.850Z,1.42
2023-12-13T04:35:59.849Z,1.17
2023-12-13T04:38:27.727Z,2.25
2023-12-13T04:40:56.960Z,1.60
2023-12-13T04:43:24.827Z,2.20
2023-12-13T04:45:52.824Z,2.00
2023-12-13T04:48:20.674Z,2.40
2023-12-13T04:50:48.476Z,1.85
2023-12-13T04:53:16.277Z,1.90
2023-12-13T04:55:44.110Z,2.10
2023-12-13T04:58:13.418Z,2.00
2023-12-13T05:00:41.218Z,2.20
2023-12-13T05:03:09.141Z,2.63
2023-12-13T05:05:37.070Z,2.30
2023-12-13T05:08:05.570Z,1.25
2023-12-13T05:10:33.452Z,1.02
2023-12-13T05:13:01.199Z,1.50
2023-12-13T05:15:30.371Z,1.48
2023-12-13T05:17:58.216Z,1.45
2023-12-13T05:20:26.069Z,1.73
2023-12-13T05:22:53.947Z,1.02
2023-12-13T05:25:21.818Z,1.10
2023-12-13T05:27:49.536Z,1.00
2023-12-13T05:30:19.329Z,0.85
2023-12-13T05:32:48.681Z,1.13
2023-12-13T05:35:16.613Z,0.98
2023-12-13T05:37:44.434Z,1.70
2023-12-13T05:40:13.901Z,2.13
2023-12-13T05:42:42.268Z,2.25
2023-12-13T05:45:10.772Z,2.13
2023-12-13T05:47:38.921Z,2.30
2023-12-13T05:50:09.567Z,1.90
2023-12-13T05:52:38.047Z,1.83
2023-12-13T05:55:06.981Z,2.55
2023-12-13T05:57:35.142Z,1.95
2023-12-13T06:00:03.165Z,2.45
2023-12-13T06:02:54.647Z,2.33
2023-12-13T06:05:26.016Z,2.38
2023-12-13T06:07:54.066Z,2.50
2023-12-13T06:10:21.996Z,3.15
2023-12-13T06:12:52.204Z,3.35
2023-12-13T06:15:20.421Z,3.17
2023-12-13T06:17:48.259Z,2.92
2023-12-13T06:20:16.436Z,2.35
2023-12-13T06:22:45.633Z,2.95
2023-12-13T06:25:13.680Z,2.85
2023-12-13T06:27:41.508Z,3.55
2023-12-13T06:30:11.743Z,3.03
2023-12-13T06:32:40.442Z,2.95
2023-12-13T06:35:09.019Z,3.20
2023-12-13T06:37:37.058Z,3.05
2023-12-13T06:40:07.823Z,3.05
2023-12-13T06:42:35.609Z,3.17
2023-12-13T06:45:04.069Z,2.95
2023-12-13T06:47:31.966Z,2.88
2023-12-13T06:49:59.891Z,2.72
2023-12-13T06:52:27.708Z,4.00
2023-12-13T06:54:55.470Z,6.07
2023-12-13T06:57:24.593Z,2.53
2023-12-13T06:59:52.378Z,2.90
2023-12-13T07:02:20.335Z,3.30
2023-12-13T07:04:48.361Z,3.03
2023-12-13T07:07:16.936Z,2.80
2023-12-13T07:09:45.594Z,2.47
2023-12-13T07:12:13.881Z,4.65
2023-12-13T07:14:42.943Z,6.53
2023-12-13T07:17:10.835Z,2.22
2023-12-13T07:19:39.616Z,2.50
2023-12-13T07:22:07.489Z,1.63
2023-12-13T07:24:35.386Z,2.38
2023-12-13T07:27:03.939Z,2.15
2023-12-13T07:29:33.575Z,2.08
2023-12-13T07:32:02.865Z,1.88
2023-12-13T07:34:30.784Z,0.43
2023-12-13T07:36:58.658Z,0.80
2023-12-13T07:39:27.434Z,1.52
2023-12-13T07:41:56.713Z,1.55
2023-12-13T07:44:25.701Z,1.30
2023-12-13T07:46:53.679Z,1.05
2023-12-13T07:49:23.146Z,1.63
2023-12-13T07:51:51.035Z,1.77
2023-12-13T07:54:19.332Z,1.45
2023-12-13T07:56:47.382Z,1.92
2023-12-13T07:59:15.135Z,2.20
2023-12-13T08:01:43.025Z,2.75
2023-12-13T08:04:10.897Z,3.00
2023-12-13T08:06:40.068Z,2.72
2023-12-13T08:09:10.484Z,2.75
2023-12-13T08:11:38.723Z,2.42
2023-12-13T08:14:09.256Z,2.65
2023-12-13T08:16:37.364Z,2.17
2023-12-13T08:19:05.375Z,2.60
2023-12-13T08:21:33.393Z,3.38
2023-12-13T08:24:03.320Z,2.33
2023-12-13T08:26:31.142Z,2.28
2023-12-13T08:29:05.726Z,2.70
2023-12-13T08:31:35.478Z,2.55
2023-12-13T08:34:03.544Z,2.88
2023-12-13T08:36:31.419Z,3.15
2023-12-13T08:38:59.620Z,3.45
2023-12-13T08:41:29.183Z,4.13
2023-12-13T08:43:57.298Z,4.25
2023-12-13T08:46:25.150Z,4.07
2023-12-13T08:48:53.072Z,4.10
2023-12-13T08:51:20.897Z,5.25
2023-12-13T08:53:50.144Z,7.00
2023-12-13T08:56:18.035Z,7.00
2023-12-13T08:58:47.241Z,6.85
2023-12-13T09:01:15.919Z,6.40
2023-12-13T09:03:44.550Z,5.25
2023-12-13T09:06:15.541Z,4.45
2023-12-13T09:08:43.474Z,3.75
2023-12-13T09:11:11.457Z,0.95
2023-12-13T09:13:39.543Z,1.58
2023-12-13T09:16:09.160Z,1.58
2023-12-13T09:18:37.395Z,1.77
2023-12-13T09:21:05.739Z,3.33
2023-12-13T09:23:37.427Z,2.83
2023-12-13T09:26:08.712Z,2.63
2023-12-13T09:28:37.117Z,3.80
2023-12-13T09:31:06.847Z,3.80
2023-12-13T09:33:36.240Z,3.75
2023-12-13T09:36:04.624Z,2.53
2023-12-13T09:38:32.556Z,2.20
2023-12-13T09:41:00.675Z,1.70
2023-12-13T09:43:28.524Z,1.60
2023-12-13T09:45:57.707Z,2.00
2023-12-13T09:48:26.897Z,2.50
2023-12-13T09:51:00.524Z,1.58
2023-12-13T09:53:30.526Z,1.25
2023-12-13T09:55:59.776Z,1.15
2023-12-13T09:58:27.770Z,1.45
2023-12-13T10:00:55.667Z,1.33
2023-12-13T10:03:23.530Z,1.30
2023-12-13T10:05:57.811Z,1.90
2023-12-13T10:08:27.012Z,2.20
2023-12-13T10:10:54.901Z,2.33
2023-12-13T10:13:22.898Z,2.50
2023-12-13T10:15:50.784Z,2.67
2023-12-13T10:18:19.040Z,2.80
2023-12-13T10:20:46.931Z,3.22
2023-12-13T10:23:15.180Z,2.72
2023-12-13T10:25:45.126Z,3.13
2023-12-13T10:28:14.147Z,2.58
2023-12-13T10:30:42.564Z,2.85
2023-12-13T10:33:11.072Z,4.03
2023-12-13T10:35:38.961Z,2.30
2023-12-13T10:38:08.938Z,1.83
2023-12-13T10:40:36.849Z,1.85
2023-12-13T10:43:09.892Z,1.45
2023-12-13T10:45:40.248Z,1.50
2023-12-13T10:48:10.303Z,1.80
2023-12-13T10:50:38.385Z,1.30
2023-12-13T10:53:08.248Z,2.25
2023-12-13T10:55:37.074Z,0.32
2023-12-13T10:58:06.512Z,1.30
2023-12-13T11:00:35.448Z,1.75
2023-12-13T11:03:10.200Z,1.80
2023-12-13T11:05:38.982Z,0.57
2023-12-13T11:08:15.997Z,1.40
2023-12-13T11:10:45.084Z,1.58
2023-12-13T11:13:24.287Z,1.65
2023-12-13T11:15:52.193Z,0.90
2023-12-13T11:18:20.631Z,1.77
2023-12-13T11:20:49.921Z,1.58
2023-12-13T11:23:17.670Z,1.85
2023-12-13T11:25:50.462Z,1.42
2023-12-13T11:28:24.672Z,0.70
2023-12-13T11:30:52.802Z,1.02
2023-12-13T11:33:23.669Z,1.00
2023-12-13T11:35:52.051Z,1.10
2023-12-13T11:38:20.225Z,1.25
2023-12-13T11:40:48.362Z,1.48
2023-12-13T11:43:16.236Z,1.75
2023-12-13T11:45:51.861Z,1.80
2023-12-13T11:48:19.933Z,1.00
2023-12-13T11:50:48.176Z,0.47
2023-12-13T11:53:16.272Z,0.50
2023-12-13T11:55:44.467Z,0.90
2023-12-13T11:58:12.354Z,0.98
2023-12-13T12:00:43.847Z,0.70
2023-12-13T12:03:13.319Z,0.70
2023-12-13T12:05:43.612Z,0.52
2023-12-13T12:08:13.121Z,0.70
2023-12-13T12:10:43.455Z,0.75
2023-12-13T12:13:14.717Z,0.77
2023-12-13T12:15:45.297Z,0.43
2023-12-13T12:18:14.999Z,0.57
2023-12-13T12:20:43.319Z,0.70
2023-12-13T12:23:12.430Z,0.70
2023-12-13T12:25:43.374Z,1.10
2023-12-13T12:28:12.810Z,1.02
2023-12-13T12:30:41.450Z,0.88
2023-12-13T12:33:09.690Z,1.20
2023-12-13T12:35:39.006Z,0.80
2023-12-13T12:38:09.360Z,0.70
2023-12-13T12:40:37.349Z,0.90
2023-12-13T12:43:05.302Z,0.70
2023-12-13T12:45:33.090Z,0.90
2023-12-13T12:48:01.061Z,1.17
2023-12-13T12:50:28.881Z,1.25
2023-12-13T12:52:58.271Z,1.38
2023-12-13T12:55:26.131Z,1.23
2023-12-13T12:57:53.938Z,1.50
2023-12-13T13:00:21.796Z,2.10
2023-12-13T13:02:49.842Z,2.33
2023-12-13T13:05:17.818Z,1.50
2023-12-13T13:07:46.009Z,0.80
2023-12-13T13:10:15.276Z,1.40
2023-12-13T13:12:43.808Z,1.35
2023-12-13T13:15:12.313Z,1.00
2023-12-13T13:17:40.835Z,0.90
2023-12-13T13:20:14.013Z,1.13
2023-12-13T13:22:42.423Z,1.08
2023-12-13T13:25:11.260Z,0.47
2023-12-13T13:27:41.412Z,1.00
2023-12-13T13:30:10.655Z,0.40
2023-12-13T13:32:40.184Z,0.60
2023-12-13T13:35:09.655Z,1.10
2023-12-13T13:37:38.085Z,0.88
2023-12-13T13:40:07.404Z,0.80
2023-12-13T13:42:35.438Z,1.08
2023-12-13T13:45:06.079Z,0.90
2023-12-13T13:47:34.345Z,0.63
2023-12-13T13:50:04.473Z,0.70
2023-12-13T13:52:32.647Z,0.50
2023-12-13T13:55:00.619Z,1.25
2023-12-13T13:57:28.387Z,0.73
2023-12-13T13:59:57.827Z,0.90
2023-12-13T14:02:33.536Z,1.30
2023-12-13T14:05:03.090Z,0.95
2023-12-13T14:07:33.160Z,1.20
2023-12-13T14:10:01.460Z,0.70
2023-12-13T14:12:30.557Z,0.75
2023-12-13T14:14:58.510Z,0.77
2023-12-13T14:17:29.716Z,0.60
2023-12-13T14:19:57.994Z,1.10
2023-12-13T14:22:26.488Z,1.40
2023-12-13T14:24:54.407Z,1.98
2023-12-13T14:27:22.226Z,2.85
2023-12-13T14:29:50.037Z,4.38
2023-12-13T14:32:17.924Z,3.60
2023-12-13T14:34:47.194Z,3.80
2023-12-13T14:37:15.377Z,4.18
2023-12-13T14:39:43.575Z,3.40
2023-12-13T14:42:13.002Z,3.58
2023-12-13T14:44:40.925Z,2.78
2023-12-13T14:47:08.902Z,2.60
2023-12-13T14:49:36.717Z,2.22
2023-12-13T14:52:07.323Z,1.80
2023-12-13T14:54:35.639Z,1.77
2023-12-13T14:57:04.362Z,2.00
2023-12-13T14:59:32.160Z,1.67
2023-12-13T15:02:00.094Z,1.58
2023-12-13T15:04:28.012Z,2.03
2023-12-13T15:06:55.956Z,2.00
2023-12-13T15:09:27.018Z,2.20
2023-12-13T15:11:54.800Z,2.65
2023-12-13T15:14:22.577Z,2.97
2023-12-13T15:16:50.620Z,3.45
2023-12-13T15:19:18.535Z,2.65
2023-12-13T15:21:46.429Z,4.28
2023-12-13T15:24:14.358Z,4.75
2023-12-13T15:26:43.728Z,4.18
2023-12-13T15:29:11.627Z,3.92
2023-12-13T15:31:41.330Z,2.90
2023-12-13T15:34:11.646Z,2.95
2023-12-13T15:36:44.615Z,3.40
2023-12-13T15:41:43.428Z,5.85
2023-12-13T15:44:14.013Z,4.68
2023-12-13T15:46:41.882Z,4.88
2023-12-13T15:49:10.421Z,4.30
2023-12-13T15:51:38.217Z,4.13
2023-12-13T15:54:06.245Z,3.47
2023-12-13T15:56:34.069Z,4.13
2023-12-13T15:59:03.282Z,2.95
2023-12-13T16:01:32.258Z,3.10
2023-12-13T16:04:00.104Z,2.92
2023-12-13T16:06:28.126Z,2.80
2023-12-13T16:08:56.091Z,3.67
2023-12-13T16:11:24.030Z,3.75
2023-12-13T16:13:52.950Z,4.00
2023-12-13T16:16:22.289Z,6.07
2023-12-13T16:18:50.440Z,5.90
2023-12-13T16:21:19.717Z,6.38
2023-12-13T16:23:47.779Z,4.97
2023-12-13T16:26:15.759Z,5.00
2023-12-13T16:28:43.610Z,7.07
2023-12-13T16:31:11.595Z,8.90
2023-12-13T16:33:41.229Z,9.25
2023-12-13T16:36:09.175Z,8.18
2023-12-13T16:38:36.992Z,8.52
2023-12-13T16:41:05.322Z,6.72
2023-12-13T16:43:33.274Z,7.13
2023-12-13T16:46:02.878Z,7.47
2023-12-13T16:48:30.765Z,6.88
2023-12-13T16:51:00.039Z,6.47
2023-12-13T16:53:27.822Z,8.25
2023-12-13T16:55:56.254Z,8.90
2023-12-13T16:58:24.452Z,8.95
2023-12-13T17:00:52.295Z,8.15
2023-12-13T17:03:20.285Z,7.30
2023-12-13T17:05:48.086Z,7.65
2023-12-13T17:08:17.325Z,6.50
2023-12-13T17:10:45.540Z,6.38
2023-12-13T17:13:13.522Z,7.55
2023-12-13T17:15:41.536Z,7.78
2023-12-13T17:18:09.782Z,8.48
2023-12-13T17:20:37.688Z,8.55
2023-12-13T17:23:05.539Z,9.13
2023-12-13T17:25:34.817Z,9.73
2023-12-13T17:28:02.594Z,9.63
2023-12-13T17:30:30.495Z,10.10
2023-12-13T17:32:59.218Z,10.40
2023-12-13T17:35:27.114Z,11.93
2023-12-13T17:37:56.331Z,10.93
2023-12-13T17:40:24.169Z,10.27
2023-12-13T17:42:53.469Z,11.95
2023-12-13T17:45:21.388Z,9.95
2023-12-13T17:47:52.285Z,8.57
2023-12-13T17:50:20.858Z,8.45
2023-12-13T17:52:48.753Z,9.43
2023-12-13T17:55:17.529Z,9.30
2023-12-13T17:57:45.434Z,11.88
2023-12-13T18:00:15.376Z,10.70
2023-12-13T18:02:43.263Z,8.98
2023-12-13T18:05:11.244Z,8.63
2023-12-13T18:07:39.189Z,8.93
2023-12-13T18:10:07.648Z,6.53
2023-12-13T18:12:35.895Z,9.52
2023-12-13T18:15:03.978Z,11.05
2023-12-13T18:17:32.737Z,9.88
2023-12-13T18:20:00.910Z,10.05
2023-12-13T18:22:28.939Z,9.88
2023-12-13T18:24:56.772Z,10.13
2023-12-13T18:27:24.548Z,11.15
2023-12-13T18:29:52.577Z,10.10
2023-12-13T18:32:20.497Z,9.32
2023-12-13T18:34:49.647Z,10.82
2023-12-13T18:37:17.642Z,9.63
2023-12-13T18:39:45.992Z,9.82
2023-12-13T18:42:13.831Z,10.75
2023-12-13T18:44:41.612Z,11.88
2023-12-13T18:47:09.591Z,11.13
2023-12-13T18:49:37.421Z,12.18
2023-12-13T18:52:07.939Z,10.95
2023-12-13T18:54:35.946Z,11.13
2023-12-13T18:57:03.821Z,10.55
2023-12-13T18:59:32.766Z,8.77
2023-12-13T19:02:00.808Z,10.05
2023-12-13T19:04:28.716Z,8.30
2023-12-13T19:06:56.691Z,9.93
2023-12-13T19:09:26.598Z,9.23
2023-12-13T19:11:54.529Z,7.82
2023-12-13T19:14:22.354Z,9.07
2023-12-13T19:16:50.899Z,8.07
2023-12-13T19:19:22.239Z,6.53
2023-12-13T19:21:51.187Z,7.32
2023-12-13T19:24:19.025Z,8.23
2023-12-13T19:26:48.125Z,6.63
2023-12-13T19:29:16.725Z,6.88
2023-12-13T19:31:45.794Z,7.88
2023-12-13T19:34:22.707Z,8.40
2023-12-13T19:36:55.729Z,7.15
2023-12-13T19:39:23.644Z,5.90
2023-12-13T19:41:52.963Z,7.78
2023-12-13T19:44:20.778Z,4.90
2023-12-13T19:46:48.663Z,5.93
2023-12-13T19:49:17.001Z,6.53
2023-12-13T19:51:44.915Z,6.78
2023-12-13T19:54:13.532Z,5.32
2023-12-13T19:56:41.690Z,4.28
2023-12-13T19:59:10.991Z,1.55
2023-12-13T20:01:39.364Z,3.67
2023-12-13T20:04:08.726Z,3.88
2023-12-13T20:06:37.009Z,3.92
2023-12-13T20:09:05.429Z,5.80
2023-12-13T20:11:33.202Z,4.15
2023-12-13T20:14:04.521Z,3.25
2023-12-13T20:16:38.014Z,2.95
2023-12-13T20:19:05.938Z,3.35
2023-12-13T20:21:33.837Z,2.83
2023-12-13T20:24:01.716Z,2.55
2023-12-13T20:26:29.776Z,1.50
2023-12-13T20:28:57.748Z,1.88
2023-12-13T20:31:25.719Z,1.52
2023-12-13T20:33:55.009Z,1.60
2023-12-13T20:36:23.405Z,2.50
2023-12-13T20:38:51.444Z,3.10
2023-12-13T20:41:19.345Z,2.20
2023-12-13T20:43:47.253Z,1.67
2023-12-13T20:46:15.163Z,1.90
2023-12-13T20:48:46.060Z,3.20
2023-12-13T20:51:15.428Z,3.50
2023-12-13T20:53:44.320Z,3.15
2023-12-13T20:56:13.113Z,3.22
2023-12-13T20:58:41.661Z,2.60
2023-12-13T21:01:11.967Z,2.80
2023-12-13T21:03:41.141Z,3.50
2023-12-13T21:06:09.935Z,3.38
2023-12-13T21:08:39.217Z,4.55
2023-12-13T21:11:07.607Z,4.72
2023-12-13T21:13:35.508Z,3.03
2023-12-13T21:16:03.435Z,4.30
2023-12-13T21:18:32.953Z,3.65
2023-12-13T21:21:00.886Z,3.15
2023-12-13T21:23:28.739Z,3.78
2023-12-13T21:25:57.959Z,4.15
2023-12-13T21:28:25.831Z,3.95
2023-12-13T21:30:53.702Z,4.88
2023-12-13T21:33:22.695Z,4.45
2023-12-13T21:35:50.772Z,5.03
2023-12-13T21:38:18.809Z,5.53
2023-12-13T21:40:46.803Z,5.22
2023-12-13T21:43:16.057Z,1.42
2023-12-13T21:45:44.036Z,6.18
2023-12-13T21:48:11.957Z,2.88
2023-12-13T21:50:39.872Z,3.22
2023-12-13T21:53:07.671Z,3.85
2023-12-13T21:55:36.287Z,4.93
2023-12-13T21:58:04.244Z,2.58
2023-12-13T22:00:33.448Z,3.65
2023-12-13T22:03:01.310Z,3.45
2023-12-13T22:05:29.199Z,2.50
2023-12-13T22:07:56.985Z,4.07
2023-12-13T22:10:27.907Z,5.07
2023-12-13T22:12:55.805Z,3.92
2023-12-13T22:15:23.619Z,5.78
2023-12-13T22:17:56.013Z,4.25
2023-12-13T22:20:24.486Z,6.55
2023-12-13T22:22:53.892Z,2.83
2023-12-13T22:25:21.982Z,2.88
2023-12-13T22:27:49.851Z,3.50
2023-12-13T22:30:17.739Z,4.25
2023-12-13T22:32:45.762Z,3.40
2023-12-13T22:35:15.133Z,1.98
2023-12-13T22:37:42.989Z,2.72
2023-12-13T22:40:11.673Z,3.20
2023-12-13T22:42:39.481Z,2.92
2023-12-13T22:45:07.918Z,1.90
2023-12-13T22:47:35.799Z,2.88
2023-12-13T22:50:03.810Z,2.67
2023-12-13T22:52:33.236Z,2.75
2023-12-13T22:55:01.167Z,2.15
2023-12-13T22:57:28.925Z,3.55
2023-12-13T22:59:56.729Z,2.58
2023-12-13T23:02:24.524Z,2.33
2023-12-13T23:04:52.460Z,1.67
2023-12-13T23:07:20.293Z,1.27
2023-12-13T23:09:49.481Z,2.65
2023-12-13T23:12:17.288Z,2.95
2023-12-13T23:14:45.098Z,1.75
2023-12-13T23:17:13.033Z,2.33
2023-12-13T23:19:40.790Z,2.55
2023-12-13T23:22:08.675Z,2.50
2023-12-13T23:24:36.447Z,2.05
2023-12-13T23:27:06.189Z,2.10
2023-12-13T23:29:33.948Z,2.58
2023-12-13T23:32:01.774Z,1.08
2023-12-13T23:34:29.874Z,1.90
2023-12-13T23:36:57.740Z,0.90
2023-12-13T23:39:25.497Z,1.05
2023-12-13T23:41:53.316Z,1.85
2023-12-13T23:44:22.587Z,2.22
2023-12-13T23:46:50.354Z,1.77
2023-12-13T23:49:18.245Z,3.08
2023-12-13T23:51:46.142Z,2.55
2023-12-13T23:54:14.037Z,3.03
2023-12-13T23:56:42.025Z,2.00
2023-12-13T23:59:10.048Z,2.63
